Time;durP1;ratioP1;P1;durP2;ratioP2;P2;SDS_P1;SDS_P2;PMS_P1;PMS_P2;Temp;Humidity;BMP_temperature;BMP_pressure;BME280_temperature;BME280_humidity;BME280_pressure;Samples;Min_cycle;Max_cycle;Signal;HPM_P1;HPM_P2
2023/12/14 00:02:18;;;;;;;13.90;2.33;;;12.70;96.70;;;;;;4877437;29;20071;-61
2023/12/14 00:04:48;;;;;;;7.03;1.83;;;12.70;96.70;;;;;;4885837;29;20215;-61
2023/12/14 00:07:22;;;;;;;13.02;2.30;;;12.70;96.70;;;;;;4877767;29;20634;-61
2023/12/14 00:09:51;;;;;;;6.90;2.17;;;12.70;96.70;;;;;;4875410;29;20392;-61
2023/12/14 00:12:22;;;;;;;14.98;3.20;;;12.60;96.70;;;;;;4887350;29;20052;-61
2023/12/14 00:14:50;;;;;;;12.35;2.35;;;12.60;96.70;;;;;;4890805;29;20060;-62
2023/12/14 00:17:20;;;;;;;9.55;1.60;;;12.60;96.70;;;;;;4870562;29;20059;-61
2023/12/14 00:19:50;;;;;;;10.30;1.83;;;12.60;96.70;;;;;;4843429;29;20095;-61
2023/12/14 00:22:21;;;;;;;11.80;1.92;;;12.50;96.70;;;;;;4841849;29;20045;-61
2023/12/14 00:24:50;;;;;;;11.43;1.75;;;12.50;96.70;;;;;;4836164;29;20057;-61
2023/12/14 00:27:19;;;;;;;8.50;2.25;;;12.50;96.70;;;;;;4841844;29;20068;-61
2023/12/14 00:29:48;;;;;;;8.05;1.45;;;12.50;96.70;;;;;;4854580;29;20065;-61
2023/12/14 00:32:18;;;;;;;6.18;1.45;;;12.50;96.70;;;;;;4840410;29;20105;-62
2023/12/14 00:34:49;;;;;;;10.88;2.13;;;12.50;96.70;;;;;;4858399;29;20210;-61
2023/12/14 00:37:17;;;;;;;14.13;2.55;;;12.60;96.70;;;;;;4842577;29;20055;-61
2023/12/14 00:39:49;;;;;;;15.27;2.92;;;12.60;96.70;;;;;;4842105;29;20041;-61
2023/12/14 00:42:19;;;;;;;7.38;1.55;;;12.70;96.70;;;;;;4840509;29;20102;-61
2023/12/14 00:44:51;;;;;;;10.35;1.85;;;12.80;96.70;;;;;;4845882;29;20076;-61
2023/12/14 00:47:19;;;;;;;9.80;2.20;;;12.80;96.70;;;;;;4846128;29;20110;-61
2023/12/14 00:49:49;;;;;;;12.23;2.13;;;12.80;96.70;;;;;;4862907;29;20083;-61
2023/12/14 00:52:18;;;;;;;8.70;1.50;;;12.80;96.70;;;;;;4866436;29;20530;-62
2023/12/14 00:54:48;;;;;;;9.00;1.80;;;12.80;96.70;;;;;;4874580;29;20704;-62
2023/12/14 00:57:21;;;;;;;9.38;1.58;;;12.80;96.70;;;;;;4848415;29;20049;-61
2023/12/14 00:59:52;;;;;;;7.25;1.55;;;12.80;96.70;;;;;;4858521;29;20104;-61
2023/12/14 01:02:21;;;;;;;7.03;1.60;;;12.70;96.70;;;;;;4873014;29;20064;-61
2023/12/14 01:04:50;;;;;;;15.25;1.83;;;12.70;96.70;;;;;;4861929;29;20044;-61
2023/12/14 01:07:20;;;;;;;13.93;2.47;;;12.70;96.70;;;;;;4856552;29;20144;-62
2023/12/14 01:09:51;;;;;;;13.30;2.45;;;12.60;96.70;;;;;;4873920;29;20553;-61
2023/12/14 01:12:19;;;;;;;9.50;1.70;;;12.50;96.70;;;;;;4881033;29;20044;-61
2023/12/14 01:14:48;;;;;;;7.85;1.45;;;12.50;96.70;;;;;;4851195;29;20402;-61
2023/12/14 01:17:18;;;;;;;8.23;2.00;;;12.50;96.70;;;;;;4894067;29;20108;-61
2023/12/14 01:19:49;;;;;;;11.88;1.67;;;12.50;96.70;;;;;;4856729;29;20144;-61
2023/12/14 01:22:18;;;;;;;11.32;1.88;;;12.40;96.70;;;;;;4853164;29;20689;-61
2023/12/14 01:24:49;;;;;;;7.85;1.42;;;12.40;96.70;;;;;;4873585;29;20139;-61
2023/12/14 01:27:18;;;;;;;11.45;2.78;;;12.40;96.70;;;;;;4861347;29;20048;-61
2023/12/14 01:29:47;;;;;;;12.43;2.42;;;12.30;96.70;;;;;;4875340;29;20053;-61
2023/12/14 01:32:16;;;;;;;9.55;1.70;;;12.30;96.70;;;;;;4876070;29;20123;-61
2023/12/14 01:34:46;;;;;;;10.63;2.33;;;12.20;96.70;;;;;;4869626;29;20129;-61
2023/12/14 01:37:15;;;;;;;15.57;3.55;;;12.20;96.70;;;;;;4869458;29;20262;-61
2023/12/14 01:39:45;;;;;;;16.23;3.15;;;12.30;96.70;;;;;;4870718;29;20037;-60
2023/12/14 01:42:17;;;;;;;9.63;2.35;;;12.30;96.70;;;;;;4861196;29;20044;-61
2023/12/14 01:44:47;;;;;;;7.10;2.38;;;12.30;96.70;;;;;;4875384;29;20145;-60
2023/12/14 01:47:18;;;;;;;7.13;1.75;;;12.30;96.70;;;;;;4855741;29;20053;-60
2023/12/14 01:49:48;;;;;;;11.43;1.83;;;12.30;96.70;;;;;;4873889;29;20049;-61
2023/12/14 01:52:18;;;;;;;9.63;1.55;;;12.30;96.70;;;;;;4875509;29;20053;-60
2023/12/14 01:54:47;;;;;;;6.10;1.23;;;12.40;96.70;;;;;;4851411;29;20068;-61
2023/12/14 01:57:17;;;;;;;13.55;2.53;;;12.30;96.70;;;;;;4838700;29;20049;-60
2023/12/14 01:59:46;;;;;;;9.05;1.85;;;12.30;96.70;;;;;;4856487;29;20488;-60
2023/12/14 02:02:15;;;;;;;11.95;2.30;;;12.20;96.70;;;;;;4865355;29;20045;-61
2023/12/14 02:04:44;;;;;;;6.80;1.23;;;12.20;96.70;;;;;;4859177;29;20048;-60
2023/12/14 02:07:13;;;;;;;12.65;2.33;;;12.20;96.70;;;;;;4859219;29;20515;-61
2023/12/14 02:09:44;;;;;;;15.43;2.03;;;12.20;96.70;;;;;;4856993;29;20100;-61
2023/12/14 02:12:13;;;;;;;14.98;2.83;;;12.20;96.70;;;;;;4851549;29;20569;-61
2023/12/14 02:14:49;;;;;;;10.73;2.05;;;12.20;96.70;;;;;;4841711;29;20520;-61
2023/12/14 02:17:20;;;;;;;9.98;2.45;;;12.10;96.70;;;;;;4861168;29;20063;-61
2023/12/14 02:19:50;;;;;;;8.80;2.00;;;12.20;96.70;;;;;;4874327;29;20140;-61
2023/12/14 02:22:19;;;;;;;12.63;1.75;;;12.20;96.70;;;;;;4815398;29;20132;-61
2023/12/14 02:24:53;;;;;;;9.15;2.15;;;12.10;96.70;;;;;;4854193;29;20135;-61
2023/12/14 02:27:21;;;;;;;8.25;1.67;;;12.00;96.70;;;;;;4860138;29;20052;-61
2023/12/14 02:30:10;;;;;;;10.38;1.98;;;12.00;96.70;;;;;;4859758;29;20048;-61
2023/12/14 02:32:39;;;;;;;15.95;2.17;;;12.00;96.70;;;;;;4848971;29;20084;-61
2023/12/14 02:35:09;;;;;;;8.38;1.52;;;12.00;96.70;;;;;;4859836;29;20135;-61
2023/12/14 02:37:40;;;;;;;6.68;1.50;;;11.90;96.70;;;;;;4858567;29;20449;-61
2023/12/14 02:40:15;;;;;;;13.93;3.83;;;11.90;96.70;;;;;;4861167;29;20056;-61
2023/12/14 02:42:44;;;;;;;12.55;3.10;;;11.90;96.70;;;;;;4873439;29;20135;-61
2023/12/14 02:45:13;;;;;;;8.85;2.08;;;11.80;96.70;;;;;;4856867;29;20094;-61
2023/12/14 02:47:42;;;;;;;9.23;2.08;;;11.80;96.70;;;;;;4873659;29;20143;-61
2023/12/14 02:50:13;;;;;;;13.27;2.22;;;11.80;96.70;;;;;;4851602;29;20061;-61
2023/12/14 02:52:42;;;;;;;8.32;1.98;;;11.90;96.70;;;;;;4852108;29;20053;-61
2023/12/14 02:55:13;;;;;;;9.20;2.00;;;11.90;96.70;;;;;;4861855;29;20064;-61
2023/12/14 02:57:42;;;;;;;4.78;1.30;;;11.90;96.70;;;;;;4848368;29;20096;-60
2023/12/14 03:00:12;;;;;;;8.50;1.80;;;12.00;96.70;;;;;;4873882;29;20045;-61
2023/12/14 03:02:41;;;;;;;7.80;1.92;;;12.00;96.70;;;;;;4867699;29;20111;-62
2023/12/14 03:05:11;;;;;;;10.55;1.60;;;12.10;96.70;;;;;;4851951;29;20049;-62
2023/12/14 03:07:41;;;;;;;9.15;1.60;;;12.10;96.70;;;;;;4855807;29;20053;-61
2023/12/14 03:10:14;;;;;;;8.63;1.40;;;12.10;96.70;;;;;;4873684;29;20036;-61
2023/12/14 03:12:43;;;;;;;8.57;1.55;;;12.10;96.70;;;;;;4870257;29;20880;-61
2023/12/14 03:15:12;;;;;;;7.93;1.40;;;12.10;96.70;;;;;;4854421;29;20458;-61
2023/12/14 03:17:41;;;;;;;8.80;1.38;;;12.10;96.70;;;;;;4840158;29;20060;-61
2023/12/14 03:20:11;;;;;;;5.78;1.75;;;12.10;96.70;;;;;;4823586;29;20129;-61
2023/12/14 03:22:40;;;;;;;8.38;1.40;;;12.10;96.70;;;;;;4825249;29;20057;-61
2023/12/14 03:25:11;;;;;;;10.38;1.92;;;12.10;96.70;;;;;;4810424;29;20072;-61
2023/12/14 03:27:43;;;;;;;7.60;1.45;;;12.10;96.70;;;;;;4844942;29;20443;-61
2023/12/14 03:30:12;;;;;;;5.47;1.40;;;12.00;96.70;;;;;;4826250;29;20627;-61
2023/12/14 03:32:42;;;;;;;7.22;1.88;;;12.00;96.70;;;;;;4839832;29;20599;-61
2023/12/14 03:38:15;;;;;;;7.43;1.40;;;12.00;96.70;;;;;;5327877;23;20163;-67
2023/12/14 03:40:45;;;;;;;7.15;1.30;;;11.90;96.70;;;;;;4897414;29;20056;-66
2023/12/14 03:43:16;;;;;;;4.85;1.10;;;11.80;96.70;;;;;;4891209;29;20044;-67
2023/12/14 03:45:44;;;;;;;8.85;1.08;;;11.90;96.70;;;;;;4885434;29;20067;-67
2023/12/14 03:48:13;;;;;;;7.68;1.30;;;12.00;96.70;;;;;;4877914;29;20045;-67
2023/12/14 03:50:42;;;;;;;7.97;0.90;;;12.00;96.70;;;;;;4895181;29;20045;-67
2023/12/14 03:53:12;;;;;;;9.55;1.75;;;12.00;96.70;;;;;;4879827;29;20051;-67
2023/12/14 03:55:43;;;;;;;8.52;1.50;;;12.10;96.70;;;;;;4898513;29;20079;-67
2023/12/14 03:58:13;;;;;;;7.75;1.30;;;12.10;96.70;;;;;;4899003;29;20534;-67
2023/12/14 04:00:52;;;;;;;5.65;1.35;;;12.10;96.70;;;;;;4891834;29;20119;-68
2023/12/14 04:03:22;;;;;;;6.22;1.30;;;12.10;96.70;;;;;;4877311;29;20108;-67
2023/12/14 04:05:51;;;;;;;6.60;1.83;;;12.10;96.70;;;;;;4881372;29;20104;-66
2023/12/14 04:08:21;;;;;;;8.13;1.25;;;12.10;96.70;;;;;;4865455;29;20093;-67
2023/12/14 04:10:50;;;;;;;4.32;0.98;;;12.10;96.70;;;;;;4860764;29;20040;-67
2023/12/14 04:13:20;;;;;;;6.60;1.25;;;12.10;96.70;;;;;;4875607;29;20064;-66
2023/12/14 04:15:52;;;;;;;9.73;1.70;;;12.10;96.70;;;;;;4863574;29;20053;-67
2023/12/14 04:18:40;;;;;;;10.43;1.67;;;12.10;96.70;;;;;;4860992;29;20063;-67
2023/12/14 04:21:21;;;;;;;10.25;1.75;;;12.10;96.70;;;;;;4855171;29;20164;-67
2023/12/14 04:23:50;;;;;;;9.98;1.77;;;12.00;96.70;;;;;;4861181;29;20607;-67
2023/12/14 04:26:21;;;;;;;9.48;1.40;;;12.00;96.70;;;;;;4850736;29;20049;-67
2023/12/14 04:29:01;;;;;;;9.95;1.98;;;12.00;96.70;;;;;;4858593;29;20056;-67
2023/12/14 04:31:32;;;;;;;8.18;1.27;;;12.00;96.70;;;;;;4803462;29;20083;-67
2023/12/14 04:34:11;;;;;;;5.65;1.10;;;12.00;96.70;;;;;;4864212;29;20057;-68
2023/12/14 04:36:40;;;;;;;6.70;1.33;;;12.00;96.70;;;;;;4864528;29;20048;-68
2023/12/14 04:39:10;;;;;;;5.95;1.17;;;12.00;96.70;;;;;;4861840;29;20052;-67
2023/12/14 04:41:43;;;;;;;4.47;0.82;;;12.00;96.70;;;;;;4862810;29;20061;-67
2023/12/14 04:44:12;;;;;;;5.38;1.30;;;12.00;96.70;;;;;;4834663;29;20086;-67
2023/12/14 04:46:43;;;;;;;8.65;1.67;;;11.90;96.70;;;;;;4878869;29;20064;-67
2023/12/14 04:49:12;;;;;;;6.38;1.05;;;11.80;96.70;;;;;;4847886;29;20041;-67
2023/12/14 04:51:41;;;;;;;7.78;1.48;;;11.80;96.70;;;;;;4867255;29;20052;-67
2023/12/14 04:54:13;;;;;;;7.50;1.20;;;11.80;96.70;;;;;;4878989;29;20052;-67
2023/12/14 04:56:44;;;;;;;3.22;1.25;;;11.70;96.70;;;;;;4886408;29;20047;-66
2023/12/14 04:59:14;;;;;;;5.90;1.20;;;11.70;96.70;;;;;;4880540;29;20056;-67
2023/12/14 05:01:47;;;;;;;8.25;1.42;;;11.70;96.70;;;;;;4872733;29;20055;-68
2023/12/14 05:04:16;;;;;;;7.88;1.58;;;11.70;96.70;;;;;;4873735;29;20056;-67
2023/12/14 05:06:45;;;;;;;6.47;1.50;;;11.60;96.70;;;;;;4874385;29;20094;-67
2023/12/14 05:09:14;;;;;;;7.43;1.20;;;11.60;96.70;;;;;;4875119;29;20055;-68
2023/12/14 05:11:45;;;;;;;5.25;1.45;;;11.60;96.70;;;;;;4879623;29;20052;-68
2023/12/14 05:14:17;;;;;;;8.93;1.65;;;11.60;96.70;;;;;;4862268;29;20057;-68
2023/12/14 05:16:51;;;;;;;8.43;1.40;;;11.50;96.70;;;;;;4882230;29;20056;-67
2023/12/14 05:19:21;;;;;;;9.65;1.27;;;11.50;96.70;;;;;;4860218;29;20099;-68
2023/12/14 05:21:54;;;;;;;4.72;1.23;;;11.40;96.70;;;;;;4868526;29;20052;-67
2023/12/14 05:24:23;;;;;;;6.50;1.60;;;11.40;96.70;;;;;;4878551;29;20063;-68
2023/12/14 05:26:52;;;;;;;5.80;1.30;;;11.50;96.70;;;;;;4861909;29;20060;-68
2023/12/14 05:29:23;;;;;;;4.13;0.70;;;11.50;96.70;;;;;;4875183;29;20052;-68
2023/12/14 05:31:57;;;;;;;5.35;1.27;;;11.50;96.70;;;;;;4857474;29;20056;-67
2023/12/14 05:34:26;;;;;;;3.53;0.95;;;11.50;96.70;;;;;;4877981;29;20072;-68
2023/12/14 05:36:55;;;;;;;4.93;1.55;;;11.50;96.70;;;;;;4873674;29;20057;-67
2023/12/14 05:39:24;;;;;;;5.38;1.50;;;11.50;96.70;;;;;;4845871;29;20065;-68
2023/12/14 05:42:00;;;;;;;10.02;1.80;;;11.40;96.70;;;;;;4864229;29;20511;-68
2023/12/14 05:44:30;;;;;;;10.20;1.35;;;11.40;96.70;;;;;;4839579;29;20399;-67
2023/12/14 05:47:00;;;;;;;6.18;1.13;;;11.30;96.70;;;;;;4857531;29;20105;-68
2023/12/14 05:49:31;;;;;;;7.30;2.13;;;11.20;96.70;;;;;;4862009;29;20056;-68
2023/12/14 05:52:03;;;;;;;11.73;1.73;;;11.10;96.70;;;;;;4858773;29;20053;-68
2023/12/14 05:54:31;;;;;;;11.80;1.50;;;11.10;96.70;;;;;;4860497;29;20052;-67
2023/12/14 05:57:01;;;;;;;10.65;1.58;;;11.10;96.70;;;;;;4864035;29;20507;-67
2023/12/14 05:59:32;;;;;;;7.65;1.63;;;11.20;96.70;;;;;;4859639;29;20089;-67
2023/12/14 06:02:06;;;;;;;11.60;1.88;;;11.30;96.70;;;;;;4877771;29;20655;-67
2023/12/14 06:04:36;;;;;;;7.47;1.95;;;11.40;96.70;;;;;;4874757;29;20542;-67
2023/12/14 06:07:06;;;;;;;5.38;1.77;;;11.40;96.70;;;;;;4881179;29;20076;-67
2023/12/14 06:09:42;;;;;;;7.13;1.70;;;11.50;96.70;;;;;;4890153;29;20045;-67
2023/12/14 06:12:13;;;;;;;8.82;1.70;;;11.60;96.70;;;;;;4862273;29;20140;-67
2023/12/14 06:14:44;;;;;;;6.70;1.55;;;11.60;96.70;;;;;;4860956;29;20059;-67
2023/12/14 06:17:18;;;;;;;7.95;1.65;;;11.60;96.70;;;;;;4862345;29;20518;-68
2023/12/14 06:19:48;;;;;;;9.95;1.85;;;11.60;96.70;;;;;;4876559;29;20041;-68
2023/12/14 06:22:17;;;;;;;5.72;1.55;;;11.60;96.70;;;;;;4842140;29;20048;-67
2023/12/14 06:24:46;;;;;;;6.00;1.30;;;11.70;96.70;;;;;;4872026;29;20195;-68
2023/12/14 06:27:16;;;;;;;8.57;1.55;;;11.70;96.70;;;;;;4874234;29;20095;-67
2023/12/14 06:30:06;;;;;;;9.68;1.70;;;11.70;96.70;;;;;;4862398;29;20567;-67
2023/12/14 06:32:39;;;;;;;8.93;2.63;;;11.70;96.70;;;;;;4878517;29;20049;-68
2023/12/14 06:35:08;;;;;;;7.20;1.67;;;11.60;96.70;;;;;;4828344;29;20060;-68
2023/12/14 06:37:41;;;;;;;6.80;1.80;;;11.70;96.70;;;;;;4815181;29;20516;-67
2023/12/14 06:40:14;;;;;;;8.52;1.75;;;11.70;96.70;;;;;;4839969;29;20647;-67
2023/12/14 06:42:43;;;;;;;5.25;1.40;;;11.60;96.70;;;;;;4841741;29;20086;-68
2023/12/14 06:45:12;;;;;;;6.80;1.65;;;11.70;96.70;;;;;;4842125;29;20053;-67
2023/12/14 06:47:46;;;;;;;8.55;1.77;;;11.70;96.70;;;;;;4836485;29;20056;-68
2023/12/14 06:50:54;;;;;;;7.43;2.20;;;11.70;96.70;;;;;;4849088;29;20097;-68
2023/12/14 06:53:59;;;;;;;8.18;2.50;;;11.70;96.70;;;;;;4826331;29;20053;-68
2023/12/14 06:56:28;;;;;;;9.23;2.15;;;11.70;96.70;;;;;;4824367;29;20049;-67
2023/12/14 07:01:49;;;;;;;7.25;2.22;;;11.60;96.70;;;;;;4823096;29;20734;-67
2023/12/14 07:04:19;;;;;;;7.25;2.03;;;11.60;96.70;;;;;;4832565;29;20079;-68
2023/12/14 07:06:51;;;;;;;6.63;2.60;;;11.60;96.70;;;;;;4810431;29;20576;-67
2023/12/14 07:09:20;;;;;;;8.35;2.50;;;11.60;96.70;;;;;;4848321;29;20085;-67
2023/12/14 07:12:11;;;;;;;4.93;1.95;;;11.60;96.70;;;;;;4842509;29;20052;-68
2023/12/14 07:14:40;;;;;;;6.70;1.48;;;11.60;96.70;;;;;;4831487;29;20066;-67
2023/12/14 07:17:18;;;;;;;6.38;2.40;;;11.70;96.70;;;;;;4838404;29;20062;-67
2023/12/14 07:19:50;;;;;;;5.63;1.63;;;11.70;96.70;;;;;;4835365;29;20060;-67
2023/12/14 07:22:20;;;;;;;5.75;1.58;;;11.70;96.70;;;;;;4842488;29;20126;-67
2023/12/14 07:25:03;;;;;;;6.05;1.55;;;11.70;96.70;;;;;;4838367;29;20085;-68
2023/12/14 07:27:35;;;;;;;7.28;1.98;;;11.70;96.70;;;;;;4829020;29;20065;-68
2023/12/14 07:30:09;;;;;;;6.63;1.80;;;11.70;96.70;;;;;;4853409;29;20109;-68
2023/12/14 07:32:48;;;;;;;8.88;1.92;;;11.70;96.70;;;;;;4875928;29;20430;-68
2023/12/14 07:35:20;;;;;;;6.25;1.70;;;11.70;96.70;;;;;;4871306;29;20069;-68
2023/12/14 07:38:09;;;;;;;7.20;1.63;;;11.80;96.70;;;;;;4877609;29;20460;-68
2023/12/14 07:40:41;;;;;;;6.30;1.52;;;11.80;96.70;;;;;;4884254;29;20044;-68
2023/12/14 07:43:12;;;;;;;6.30;1.58;;;11.80;96.70;;;;;;4883411;29;20080;-68
2023/12/14 07:45:42;;;;;;;9.98;1.88;;;11.80;96.70;;;;;;4875211;29;20496;-68
2023/12/14 07:48:16;;;;;;;6.88;2.13;;;11.90;96.70;;;;;;4874767;29;20151;-68
2023/12/14 07:50:48;;;;;;;6.80;2.55;;;11.90;96.70;;;;;;4884766;29;20056;-68
2023/12/14 07:53:24;;;;;;;5.60;2.40;;;11.90;96.70;;;;;;4874449;29;20364;-68
2023/12/14 07:55:53;;;;;;;7.07;1.92;;;12.00;96.70;;;;;;4881336;29;20068;-69
2023/12/14 07:58:22;;;;;;;6.38;2.17;;;12.10;96.70;;;;;;4891158;29;20060;-69
2023/12/14 08:00:54;;;;;;;6.60;1.70;;;12.20;96.70;;;;;;4898229;29;20051;-69
2023/12/14 08:03:23;;;;;;;6.35;1.40;;;12.30;96.70;;;;;;4871607;29;20087;-69
2023/12/14 08:06:03;;;;;;;8.88;1.90;;;12.50;96.70;;;;;;4889419;29;20109;-69
2023/12/14 08:08:37;;;;;;;7.05;2.03;;;12.60;96.70;;;;;;4874086;29;20727;-69
2023/12/14 08:11:31;;;;;;;7.80;1.80;;;12.80;96.70;;;;;;4893785;29;20036;-68
2023/12/14 08:14:00;;;;;;;5.28;1.73;;;13.00;96.70;;;;;;4881910;29;20091;-69
2023/12/14 08:16:36;;;;;;;4.75;1.95;;;13.00;96.70;;;;;;4875824;29;20055;-68
2023/12/14 08:19:08;;;;;;;9.65;2.08;;;13.00;96.70;;;;;;4880707;29;20056;-68
2023/12/14 08:22:12;;;;;;;7.60;1.40;;;13.10;96.70;;;;;;4891067;29;20406;-68
2023/12/14 08:24:40;;;;;;;11.20;2.53;;;13.10;96.70;;;;;;4877851;29;20059;-68
2023/12/14 08:27:10;;;;;;;6.43;1.50;;;13.20;96.70;;;;;;4902166;29;20071;-69
2023/12/14 08:30:03;;;;;;;7.45;1.90;;;13.20;96.70;;;;;;4900501;29;20080;-69
2023/12/14 08:33:32;;;;;;;6.07;1.30;;;13.30;96.70;;;;;;4894134;29;20086;-68
2023/12/14 08:36:06;;;;;;;6.75;1.83;;;13.50;96.70;;;;;;4871170;29;20282;-69
2023/12/14 08:38:36;;;;;;;6.07;1.52;;;13.50;96.70;;;;;;4889315;29;20056;-68
2023/12/14 08:41:25;;;;;;;10.15;2.22;;;13.50;96.70;;;;;;4871724;29;20056;-69
2023/12/14 08:44:28;;;;;;;8.93;2.42;;;13.50;96.70;;;;;;4868569;29;20076;-69
2023/12/14 08:46:57;;;;;;;7.10;1.52;;;13.50;96.70;;;;;;4879499;29;20045;-69
2023/12/14 08:49:25;;;;;;;10.60;2.65;;;13.60;96.70;;;;;;4874856;29;20049;-69
2023/12/14 08:51:56;;;;;;;7.47;2.38;;;13.70;96.70;;;;;;4866176;29;20113;-68
2023/12/14 08:54:26;;;;;;;6.22;1.80;;;13.90;96.70;;;;;;4861708;29;20616;-69
2023/12/14 08:56:55;;;;;;;7.13;1.83;;;13.90;96.70;;;;;;4857128;29;20153;-69
2023/12/14 08:59:23;;;;;;;6.40;1.75;;;14.00;96.70;;;;;;4842496;29;20142;-68
2023/12/14 09:01:52;;;;;;;7.72;1.80;;;13.90;96.70;;;;;;4867811;29;20049;-69
2023/12/14 09:04:21;;;;;;;8.80;1.90;;;14.00;96.70;;;;;;4872893;29;20045;-68
2023/12/14 09:06:49;;;;;;;11.13;2.42;;;14.20;96.70;;;;;;4866501;29;20171;-68
2023/12/14 09:09:18;;;;;;;6.45;1.70;;;14.20;96.70;;;;;;4861835;29;20051;-68
2023/12/14 09:11:49;;;;;;;11.00;1.73;;;14.20;96.70;;;;;;4866721;29;20053;-69
2023/12/14 09:14:21;;;;;;;6.97;1.45;;;14.30;96.70;;;;;;4856488;29;20057;-68
2023/12/14 09:16:50;;;;;;;9.48;2.20;;;14.40;96.70;;;;;;4863686;29;20060;-69
2023/12/14 09:19:18;;;;;;;6.63;1.52;;;14.50;96.70;;;;;;4877156;29;20113;-69
2023/12/14 09:21:47;;;;;;;4.50;1.40;;;14.60;96.70;;;;;;4866771;29;20036;-69
2023/12/14 09:24:15;;;;;;;5.20;1.05;;;14.70;96.70;;;;;;4873261;29;20064;-69
2023/12/14 09:26:44;;;;;;;9.90;1.50;;;14.70;96.70;;;;;;4878243;29;20044;-69
2023/12/14 09:29:16;;;;;;;13.73;2.28;;;14.70;96.70;;;;;;4830845;29;20482;-69
2023/12/14 09:31:45;;;;;;;8.00;1.85;;;14.80;96.70;;;;;;4868287;29;20045;-69
2023/12/14 09:34:14;;;;;;;7.55;2.03;;;14.90;96.70;;;;;;4843372;29;20084;-69
2023/12/14 09:36:42;;;;;;;5.72;1.55;;;15.00;96.70;;;;;;4859113;29;20500;-68
2023/12/14 09:39:11;;;;;;;7.28;1.75;;;15.00;96.70;;;;;;4858435;29;20538;-69
2023/12/14 09:41:40;;;;;;;7.22;1.50;;;15.00;96.70;;;;;;4866521;29;20057;-69
2023/12/14 09:44:08;;;;;;;7.70;1.67;;;15.00;96.70;;;;;;4867297;29;20076;-68
2023/12/14 09:46:41;;;;;;;6.13;1.77;;;15.20;96.70;;;;;;4866166;29;20047;-69
2023/12/14 09:49:12;;;;;;;6.30;1.50;;;15.20;96.70;;;;;;4834938;29;20053;-69
2023/12/14 09:51:41;;;;;;;4.65;1.10;;;15.30;96.70;;;;;;4863343;29;20064;-69
2023/12/14 09:54:09;;;;;;;7.40;1.50;;;15.40;96.70;;;;;;4856336;29;20060;-69
2023/12/14 09:56:46;;;;;;;5.10;1.17;;;15.50;96.70;;;;;;4873871;29;20136;-68
2023/12/14 09:59:15;;;;;;;4.75;1.20;;;15.40;96.70;;;;;;4858870;29;20118;-69
2023/12/14 10:01:46;;;;;;;6.20;1.08;;;15.30;96.70;;;;;;4871048;29;20068;-68
2023/12/14 10:04:16;;;;;;;4.70;1.27;;;15.30;96.70;;;;;;4856494;29;20117;-69
2023/12/14 10:06:47;;;;;;;8.02;1.80;;;15.20;96.70;;;;;;4826785;29;20058;-68
2023/12/14 10:09:22;;;;;;;6.32;1.42;;;15.30;96.70;;;;;;4828224;29;20053;-69
2023/12/14 10:12:03;;;;;;;7.93;1.70;;;15.50;96.70;;;;;;4839158;29;20093;-69
2023/12/14 10:14:32;;;;;;;3.40;0.80;;;15.60;96.70;;;;;;4821863;29;20595;-68
2023/12/14 10:17:15;;;;;;;6.63;0.98;;;15.70;96.70;;;;;;4826685;29;20579;-69
2023/12/14 10:19:44;;;;;;;8.13;1.02;;;16.00;96.70;;;;;;4855891;29;20065;-68
2023/12/14 10:22:14;;;;;;;3.00;0.73;;;16.10;96.70;;;;;;4840427;29;20508;-69
2023/12/14 10:24:44;;;;;;;7.40;1.40;;;16.30;96.70;;;;;;4827364;29;20077;-69
2023/12/14 10:27:14;;;;;;;3.35;0.90;;;16.30;96.70;;;;;;4827807;29;20568;-69
2023/12/14 10:30:05;;;;;;;4.05;0.90;;;16.40;96.70;;;;;;4828288;29;20057;-68
2023/12/14 10:32:35;;;;;;;6.18;1.00;;;16.70;96.70;;;;;;4835666;29;20107;-68
2023/12/14 10:35:05;;;;;;;3.85;1.00;;;16.90;96.70;;;;;;4838723;29;20453;-68
2023/12/14 10:37:37;;;;;;;4.15;1.00;;;16.90;96.70;;;;;;4819214;29;20053;-69
2023/12/14 10:40:10;;;;;;;5.78;1.00;;;17.00;96.70;;;;;;4855942;29;20053;-67
2023/12/14 10:42:41;;;;;;;4.07;1.13;;;17.10;96.70;;;;;;4871934;29;20062;-68
2023/12/14 10:45:13;;;;;;;8.40;1.65;;;17.10;96.70;;;;;;4899023;29;20052;-67
2023/12/14 10:47:50;;;;;;;4.53;1.05;;;17.20;96.70;;;;;;4889403;29;20068;-67
2023/12/14 10:50:20;;;;;;;4.22;1.00;;;17.20;96.70;;;;;;4884366;29;20139;-68
2023/12/14 10:52:48;;;;;;;5.22;1.15;;;17.20;96.70;;;;;;4880327;29;20108;-68
2023/12/14 10:55:25;;;;;;;3.30;0.82;;;17.00;96.70;;;;;;4864578;29;20048;-68
2023/12/14 10:57:53;;;;;;;;;;;16.90;96.70;;;;;;4870684;29;20060;-68
2023/12/14 11:00:23;;;;;;;3.83;0.98;;;16.90;96.70;;;;;;4908802;29;19958;-67
2023/12/14 11:02:53;;;;;;;4.10;1.00;;;17.00;96.70;;;;;;4873934;29;20051;-68
2023/12/14 11:05:29;;;;;;;5.80;0.85;;;16.90;96.70;;;;;;4893335;29;20052;-67
2023/12/14 11:08:12;;;;;;;9.45;1.40;;;17.10;96.70;;;;;;4887436;29;20055;-68
2023/12/14 11:10:41;;;;;;;4.70;1.58;;;16.90;96.70;;;;;;4877684;29;20052;-68
2023/12/14 11:13:13;;;;;;;5.78;0.80;;;16.70;96.70;;;;;;4885843;29;20052;-67
2023/12/14 11:15:52;;;;;;;3.75;1.00;;;16.60;96.70;;;;;;4877699;29;20294;-68
2023/12/14 11:18:26;;;;;;;2.63;0.80;;;16.30;96.70;;;;;;4887172;29;20056;-68
2023/12/14 11:20:57;;;;;;;3.72;1.02;;;16.20;96.70;;;;;;4892245;29;20051;-68
2023/12/14 11:23:38;;;;;;;6.45;1.33;;;16.10;96.70;;;;;;4875594;29;20139;-68
2023/12/14 11:26:10;;;;;;;3.38;0.88;;;16.00;96.70;;;;;;4900040;29;20056;-69
2023/12/14 11:28:43;;;;;;;2.92;0.73;;;15.90;96.70;;;;;;4880939;29;20063;-68
2023/12/14 11:31:13;;;;;;;5.20;1.58;;;15.90;96.70;;;;;;4882672;29;20067;-69
2023/12/14 11:33:45;;;;;;;4.78;0.73;;;15.90;96.70;;;;;;4878175;29;20040;-69
2023/12/14 11:36:15;;;;;;;8.60;0.98;;;15.90;96.70;;;;;;4893941;29;20060;-69
2023/12/14 11:38:44;;;;;;;5.60;1.17;;;15.80;96.70;;;;;;4865811;29;20727;-69
2023/12/14 11:41:12;;;;;;;4.25;0.80;;;15.70;96.70;;;;;;4852243;29;20063;-69
2023/12/14 11:43:42;;;;;;;6.30;1.10;;;15.60;96.70;;;;;;4856741;29;20580;-68
2023/12/14 11:46:11;;;;;;;5.60;0.98;;;15.60;96.70;;;;;;4849606;29;20052;-67
2023/12/14 11:48:46;;;;;;;5.78;1.33;;;15.50;96.70;;;;;;4877948;29;20053;-66
2023/12/14 11:51:17;;;;;;;4.75;1.10;;;15.50;96.70;;;;;;4845082;29;20059;-66
2023/12/14 11:53:47;;;;;;;4.25;1.00;;;15.40;96.70;;;;;;4855659;29;20533;-66
2023/12/14 11:56:19;;;;;;;3.92;0.93;;;15.30;96.70;;;;;;4868404;29;20053;-67
2023/12/14 11:58:49;;;;;;;6.97;1.42;;;15.30;96.70;;;;;;4852601;29;20064;-66
2023/12/14 12:01:18;;;;;;;4.07;1.00;;;15.40;96.70;;;;;;4852794;29;20053;-67
2023/12/14 12:03:49;;;;;;;2.58;0.88;;;15.50;96.70;;;;;;4845986;29;20053;-67
2023/12/14 12:06:22;;;;;;;6.25;1.30;;;15.50;96.70;;;;;;4864746;29;20056;-67
2023/12/14 12:08:52;;;;;;;5.43;1.00;;;15.60;96.70;;;;;;4859980;29;20144;-66
2023/12/14 12:11:43;;;;;;;5.20;1.05;;;15.60;96.70;;;;;;4868623;29;20099;-66
2023/12/14 12:14:11;;;;;;;4.72;1.27;;;15.60;96.70;;;;;;4822761;29;20425;-67
2023/12/14 12:16:41;;;;;;;6.07;1.33;;;15.60;96.70;;;;;;4793981;29;20122;-66
2023/12/14 12:19:12;;;;;;;4.10;1.40;;;15.60;96.70;;;;;;4818044;29;20062;-65
2023/12/14 12:21:41;;;;;;;3.63;1.58;;;15.60;96.70;;;;;;4809389;29;20053;-64
2023/12/14 12:24:31;;;;;;;5.00;1.27;;;15.60;96.70;;;;;;4819144;29;20070;-65
2023/12/14 12:30:46;;;;;;;6.82;1.10;;;15.70;96.70;;;;;;4804339;29;20126;-65
2023/12/14 12:33:53;;;;;;;3.55;1.20;;;15.60;96.70;;;;;;4819189;29;20057;-65
2023/12/14 12:36:26;;;;;;;2.88;0.80;;;15.70;96.70;;;;;;4825678;29;20153;-66
2023/12/14 12:39:44;;;;;;;5.35;0.95;;;15.80;96.70;;;;;;4816607;29;20081;-65
2023/12/14 12:42:34;;;;;;;4.20;1.00;;;15.80;96.70;;;;;;4820324;29;20057;-65
2023/12/14 12:45:04;;;;;;;2.63;0.60;;;15.70;96.70;;;;;;4848972;29;20124;-65
2023/12/14 12:47:41;;;;;;;3.78;0.73;;;15.70;96.70;;;;;;4871730;29;20483;-65
2023/12/14 12:50:11;;;;;;;3.60;1.00;;;15.90;96.70;;;;;;4877623;29;20206;-65
2023/12/14 12:53:09;;;;;;;2.25;0.68;;;16.10;96.70;;;;;;4861205;29;20140;-64
2023/12/14 12:56:39;;;;;;;5.75;0.68;;;16.00;96.70;;;;;;4862029;29;20136;-65
2023/12/14 12:59:14;;;;;;;3.33;0.80;;;15.90;96.70;;;;;;4856295;29;20141;-66
2023/12/14 13:02:03;;;;;;;;;;;;;;;;;;;;;
2023/12/14 13:04:57;;;;;;;3.30;1.00;;;15.60;96.70;;;;;;4874110;29;20045;-66
2023/12/14 13:08:16;;;;;;;3.15;0.70;;;15.50;96.70;;;;;;4864049;29;20147;-66
2023/12/14 13:16:05;;;;;;;3.83;0.95;;;15.30;96.70;;;;;;4823444;29;20438;-66
2023/12/14 13:19:23;;;;;;;;;;;;;;;;;;;;;
2023/12/14 13:21:52;;;;;;;4.15;0.90;;;15.50;96.70;;;;;;4892875;29;20134;-66
2023/12/14 13:24:45;;;;;;;2.63;0.80;;;15.50;96.70;;;;;;4821054;29;20054;-66
2023/12/14 13:27:44;;;;;;;2.60;0.85;;;15.50;96.70;;;;;;4804199;29;20145;-66
2023/12/14 13:31:47;;;;;;;5.00;0.80;;;15.40;96.70;;;;;;4815610;29;20103;-66
2023/12/14 13:34:52;;;;;;;;;;;15.30;96.70;;;;;;4829234;29;20092;-66
2023/12/14 13:41:55;;;;;;;;;;;15.10;96.70;;;;;;4901793;29;20071;-66